Time;durP1;ratioP1;P1;durP2;ratioP2;P2;SDS_P1;SDS_P2;PMS_P1;PMS_P2;Temp;Humidity;BMP_temperature;BMP_pressure;BME280_temperature;BME280_humidity;BME280_pressure;Samples;Min_cycle;Max_cycle;Signal;HPM_P1;HPM_P2
2022/01/13 00:01:08;;;;;;;47.90;17.55;;;9.60;99.90;;;;;;5125605;27;20074;-73
2022/01/13 00:03:33;;;;;;;57.13;18.27;;;9.00;99.90;;;;;;5124029;27;20421;-74
2022/01/13 00:05:59;;;;;;;45.97;17.73;;;10.00;99.90;;;;;;5079641;27;20031;-73
2022/01/13 00:08:25;;;;;;;36.75;16.15;;;9.40;99.90;;;;;;5100635;27;20039;-74
2022/01/13 00:10:50;;;;;;;42.40;15.63;;;9.60;99.90;;;;;;5108830;27;20035;-74
2022/01/13 00:13:23;;;;;;;44.70;16.85;;;8.80;99.90;;;;;;5079652;27;20047;-74
2022/01/13 00:16:02;;;;;;;52.85;19.15;;;9.60;99.90;;;;;;5087002;27;20035;-72
2022/01/13 00:18:40;;;;;;;39.97;16.00;;;9.00;99.90;;;;;;5119649;27;20064;-73
2022/01/13 00:23:53;;;;;;;46.90;15.25;;;9.90;99.90;;;;;;5114389;27;20062;-73
2022/01/13 00:26:25;;;;;;;46.30;16.88;;;10.20;99.90;;;;;;5121909;27;20039;-74
2022/01/13 00:28:52;;;;;;;46.45;16.23;;;10.00;99.90;;;;;;5110201;27;20046;-72
2022/01/13 00:31:27;;;;;;;51.22;16.08;;;8.70;99.90;;;;;;5106019;27;20043;-72
2022/01/13 00:33:57;;;;;;;44.03;16.25;;;10.30;99.90;;;;;;5113032;27;20042;-74
2022/01/13 00:36:25;;;;;;;45.10;16.58;;;8.70;99.90;;;;;;5118100;27;20054;-74
2022/01/13 00:38:51;;;;;;;38.88;15.27;;;10.00;99.90;;;;;;5109780;27;20045;-73
2022/01/13 00:41:17;;;;;;;43.03;16.05;;;9.40;99.90;;;;;;5097021;27;20043;-74
2022/01/13 00:43:46;;;;;;;46.05;15.35;;;9.90;99.90;;;;;;5110296;27;20053;-73
2022/01/13 00:46:19;;;;;;;45.28;16.35;;;10.10;99.90;;;;;;5129160;27;20098;-75
2022/01/13 00:48:45;;;;;;;40.08;14.10;;;10.20;99.90;;;;;;5106544;27;20402;-74
2022/01/13 00:51:11;;;;;;;40.85;15.70;;;9.60;99.90;;;;;;5110206;27;20035;-72
2022/01/13 00:53:36;;;;;;;43.30;15.98;;;9.70;99.90;;;;;;5122980;27;20071;-73
2022/01/13 00:56:02;;;;;;;49.50;15.55;;;9.20;99.90;;;;;;5110609;27;20058;-74
2022/01/13 00:58:31;;;;;;;38.60;13.15;;;10.00;99.90;;;;;;5097792;27;20026;-74
2022/01/13 01:00:59;;;;;;;49.55;14.65;;;9.70;99.90;;;;;;5114109;27;20122;-75
2022/01/13 01:03:26;;;;;;;36.22;14.52;;;9.50;99.90;;;;;;5112403;27;20046;-75
2022/01/13 01:05:52;;;;;;;45.90;13.20;;;9.70;99.90;;;;;;5110022;27;20121;-74
2022/01/13 01:08:18;;;;;;;37.33;12.25;;;8.60;99.90;;;;;;5113777;27;20031;-73
2022/01/13 01:10:47;;;;;;;43.35;12.05;;;10.00;99.90;;;;;;5108807;27;20031;-71
2022/01/13 01:13:15;;;;;;;30.15;11.07;;;8.60;99.90;;;;;;5109401;27;20658;-73
2022/01/13 01:15:47;;;;;;;37.60;11.88;;;10.00;99.90;;;;;;5122636;27;20054;-72
2022/01/13 01:18:26;;;;;;;36.58;12.77;;;9.70;99.90;;;;;;5131479;27;20397;-74
2022/01/13 01:29:20;;;;;;;39.50;11.88;;;9.00;99.90;;;;;;5133268;27;20084;-74
2022/01/13 01:31:45;;;;;;;40.20;13.35;;;9.60;99.90;;;;;;5131698;27;20034;-72
2022/01/13 01:36:38;;;;;;;36.92;12.82;;;10.10;99.90;;;;;;5132883;27;20478;-73
2022/01/13 01:39:06;;;;;;;38.00;12.13;;;9.60;99.90;;;;;;5109056;27;20444;-75
2022/01/13 01:41:35;;;;;;;31.58;12.20;;;10.00;99.90;;;;;;5108538;27;20501;-73
2022/01/13 01:44:09;;;;;;;34.63;13.18;;;8.90;99.90;;;;;;5129305;27;20457;-72
2022/01/13 01:46:36;;;;;;;34.47;12.02;;;9.70;99.90;;;;;;5132700;27;20112;-75
2022/01/13 01:49:14;;;;;;;42.45;13.77;;;9.20;99.90;;;;;;5130523;27;20050;-73
2022/01/13 01:51:44;;;;;;;55.85;17.63;;;8.80;99.90;;;;;;5128053;27;20402;-72
2022/01/13 01:54:11;;;;;;;47.47;17.23;;;9.50;99.90;;;;;;5118307;27;20082;-74
2022/01/13 01:56:41;;;;;;;52.92;15.77;;;8.40;99.90;;;;;;5131437;27;20039;-74
2022/01/13 01:59:14;;;;;;;57.72;19.52;;;8.60;99.90;;;;;;5117473;27;20050;-75
2022/01/13 02:01:40;;;;;;;54.85;18.25;;;9.60;99.90;;;;;;5134668;27;20030;-73
2022/01/13 02:04:06;;;;;;;46.15;16.23;;;9.90;99.90;;;;;;5088762;27;20126;-74
2022/01/13 02:06:35;;;;;;;57.03;19.00;;;9.00;99.90;;;;;;5113992;27;20475;-74
2022/01/13 02:09:02;;;;;;;64.30;19.25;;;8.40;99.90;;;;;;5107681;27;20104;-73
2022/01/13 02:11:29;;;;;;;57.03;16.58;;;8.30;99.90;;;;;;5120729;27;20047;-75
2022/01/13 02:14:08;;;;;;;44.33;15.45;;;8.50;99.90;;;;;;5130695;27;20050;-72
2022/01/13 02:19:01;;;;;;;55.67;17.50;;;8.90;99.90;;;;;;5123488;27;20356;-72
2022/01/13 02:21:27;;;;;;;47.78;16.15;;;8.30;99.90;;;;;;5104107;27;20039;-73
2022/01/13 02:23:55;;;;;;;45.35;15.45;;;8.20;99.90;;;;;;5117010;27;20036;-72
2022/01/13 02:26:21;;;;;;;49.30;15.88;;;9.70;99.90;;;;;;5114460;27;20122;-72
2022/01/13 02:28:53;;;;;;;49.10;15.52;;;9.30;99.90;;;;;;5106313;27;20125;-72
2022/01/13 02:31:19;;;;;;;58.60;17.25;;;8.30;99.90;;;;;;5130491;27;20035;-72
2022/01/13 02:33:45;;;;;;;44.58;14.90;;;9.60;99.90;;;;;;5110600;27;20042;-72
2022/01/13 02:36:14;;;;;;;44.58;14.80;;;8.20;99.90;;;;;;5108717;27;20038;-73
2022/01/13 02:38:40;;;;;;;47.33;15.82;;;8.90;99.90;;;;;;5117875;27;20116;-71
2022/01/13 02:41:06;;;;;;;46.67;15.82;;;8.50;99.90;;;;;;5134089;27;20043;-73
2022/01/13 02:43:33;;;;;;;46.33;17.10;;;9.70;99.90;;;;;;5134883;27;20062;-72
2022/01/13 02:46:18;;;;;;;44.72;15.18;;;9.10;99.90;;;;;;5115537;27;20111;-71
2022/01/13 02:48:46;;;;;;;46.90;14.95;;;9.20;99.90;;;;;;5126871;27;20390;-71
2022/01/13 02:51:12;;;;;;;48.45;15.32;;;9.80;99.90;;;;;;5112739;27;20042;-70
2022/01/13 02:53:37;;;;;;;43.50;15.65;;;8.60;99.90;;;;;;5127701;27;20038;-72
2022/01/13 02:56:05;;;;;;;47.10;15.70;;;8.80;99.90;;;;;;5113468;27;20129;-73
2022/01/13 02:58:34;;;;;;;48.70;16.77;;;8.30;99.90;;;;;;5108327;27;20479;-75
2022/01/13 03:01:03;;;;;;;45.67;15.65;;;9.70;99.90;;;;;;5135346;27;20039;-72
2022/01/13 03:03:30;;;;;;;50.25;16.27;;;9.40;99.90;;;;;;5115258;27;20038;-73
2022/01/13 03:05:56;;;;;;;43.10;15.70;;;9.70;99.90;;;;;;5098979;27;20035;-75
2022/01/13 03:08:22;;;;;;;50.42;16.25;;;8.70;99.90;;;;;;5095260;27;20359;-71
2022/01/13 03:10:47;;;;;;;51.72;16.52;;;9.60;99.90;;;;;;5132084;27;20076;-73
2022/01/13 03:13:13;;;;;;;44.08;15.95;;;8.60;99.90;;;;;;5116174;27;20043;-75
2022/01/13 03:15:39;;;;;;;42.38;14.77;;;9.40;99.90;;;;;;5134428;27;20050;-73
2022/01/13 03:18:05;;;;;;;46.80;15.68;;;9.60;99.90;;;;;;5116265;27;20058;-71
2022/01/13 03:20:31;;;;;;;44.22;15.55;;;8.80;99.90;;;;;;5126363;27;20049;-71
2022/01/13 03:22:57;;;;;;;47.65;16.52;;;8.40;99.90;;;;;;5133515;27;20094;-73
2022/01/13 03:25:24;;;;;;;57.45;16.25;;;8.80;99.90;;;;;;5114754;27;20035;-72
2022/01/13 03:28:03;;;;;;;43.13;15.00;;;9.80;99.90;;;;;;5133925;27;20066;-73
2022/01/13 03:30:30;;;;;;;71.65;18.88;;;8.80;99.90;;;;;;5128843;27;20087;-73
2022/01/13 03:32:55;;;;;;;47.10;14.80;;;9.90;99.90;;;;;;5109907;27;20032;-73
2022/01/13 03:35:21;;;;;;;52.25;15.93;;;8.50;99.90;;;;;;5112908;27;20046;-74
2022/01/13 03:37:47;;;;;;;51.83;15.90;;;9.20;99.90;;;;;;5129065;27;20039;-73
2022/01/13 03:40:13;;;;;;;61.20;16.13;;;9.60;99.90;;;;;;5115281;27;20043;-73
2022/01/13 03:42:39;;;;;;;45.10;15.80;;;8.40;99.90;;;;;;5115005;27;20580;-72
2022/01/13 03:45:05;;;;;;;60.40;17.23;;;9.10;99.90;;;;;;5134150;27;20042;-72
2022/01/13 03:47:31;;;;;;;44.08;14.85;;;9.30;99.90;;;;;;5113837;27;20372;-73
2022/01/13 03:49:56;;;;;;;39.10;15.38;;;9.30;99.90;;;;;;5104435;27;20043;-73
2022/01/13 03:52:22;;;;;;;40.85;15.25;;;9.30;99.90;;;;;;5128923;27;20035;-75
2022/01/13 03:55:25;;;;;;;55.33;14.25;;;9.80;99.90;;;;;;5134163;27;20050;-72
2022/01/13 03:58:29;;;;;;;50.05;14.95;;;9.60;99.90;;;;;;5124526;27;20058;-74
2022/01/13 04:00:55;;;;;;;45.95;14.57;;;8.70;99.90;;;;;;5116502;27;20127;-74
2022/01/13 04:03:21;;;;;;;47.25;14.63;;;9.00;99.90;;;;;;5119773;27;20071;-71
2022/01/13 04:06:08;;;;;;;62.63;17.00;;;9.70;99.90;;;;;;5102275;27;20479;-72
2022/01/13 04:08:35;;;;;;;42.88;15.60;;;9.60;99.90;;;;;;5113020;27;20078;-74
2022/01/13 04:11:03;;;;;;;57.60;16.52;;;9.70;99.90;;;;;;5132129;27;20130;-74
2022/01/13 04:13:57;;;;;;;39.20;15.25;;;9.40;99.90;;;;;;5115377;27;20043;-73
2022/01/13 04:16:27;;;;;;;46.20;14.70;;;8.60;99.90;;;;;;5133620;27;20058;-73
2022/01/13 04:18:58;;;;;;;57.70;17.48;;;9.60;99.90;;;;;;5130141;27;20410;-72
2022/01/13 04:21:24;;;;;;;44.63;15.32;;;8.50;99.90;;;;;;5133089;27;20046;-73
2022/01/13 04:23:53;;;;;;;43.55;14.88;;;9.60;99.90;;;;;;5115181;27;20039;-73
2022/01/13 04:26:19;;;;;;;63.25;17.48;;;9.50;99.90;;;;;;5117114;27;20117;-74
2022/01/13 04:28:47;;;;;;;54.88;16.17;;;9.10;99.90;;;;;;5112614;27;20035;-73
2022/01/13 04:31:13;;;;;;;49.22;14.65;;;9.60;99.90;;;;;;5117022;27;20778;-72
2022/01/13 04:33:38;;;;;;;49.53;16.15;;;8.60;99.90;;;;;;5130716;27;20121;-72
2022/01/13 04:36:08;;;;;;;58.55;16.08;;;8.90;99.90;;;;;;5132574;27;20082;-72
2022/01/13 04:38:34;;;;;;;51.78;16.15;;;9.20;99.90;;;;;;5113717;27;20632;-71
2022/01/13 04:41:01;;;;;;;62.35;16.23;;;8.70;99.90;;;;;;5114469;27;20038;-73
2022/01/13 04:43:32;;;;;;;49.92;14.68;;;8.70;99.90;;;;;;5110514;27;20030;-73
2022/01/13 04:45:58;;;;;;;57.33;15.02;;;8.50;99.90;;;;;;5116438;27;20153;-73
2022/01/13 04:48:24;;;;;;;55.28;13.35;;;9.60;99.90;;;;;;5114316;27;20415;-72
2022/01/13 04:50:50;;;;;;;47.47;13.70;;;8.30;99.90;;;;;;5096757;27;20043;-72
2022/01/13 04:53:16;;;;;;;58.92;14.60;;;9.40;99.90;;;;;;5132101;27;20428;-72
2022/01/13 04:55:50;;;;;;;36.33;12.80;;;8.60;99.90;;;;;;5130846;27;20047;-70
2022/01/13 04:58:16;;;;;;;62.07;14.47;;;8.50;99.90;;;;;;5114869;27;20058;-73
2022/01/13 05:00:42;;;;;;;45.92;14.75;;;9.30;99.90;;;;;;5131789;27;20130;-75
2022/01/13 05:03:08;;;;;;;48.53;14.52;;;9.80;99.90;;;;;;5129062;27;20157;-75
2022/01/13 05:05:34;;;;;;;46.63;14.43;;;8.40;99.90;;;;;;5113562;27;20039;-72
2022/01/13 05:07:59;;;;;;;55.70;16.05;;;9.60;99.90;;;;;;5112396;27;20064;-72
2022/01/13 05:10:25;;;;;;;45.80;15.32;;;8.30;99.90;;;;;;5132726;27;20084;-71
2022/01/13 05:12:56;;;;;;;73.85;17.42;;;8.50;99.90;;;;;;5132656;27;20136;-72
2022/01/13 05:15:26;;;;;;;55.38;15.27;;;8.40;99.90;;;;;;5130913;27;20043;-70
2022/01/13 05:20:22;;;;;;;50.65;14.65;;;9.20;99.90;;;;;;5130476;27;20050;-72
2022/01/13 05:22:48;;;;;;;45.28;14.10;;;8.40;99.90;;;;;;5114133;27;20047;-74
2022/01/13 05:25:15;;;;;;;48.95;14.45;;;9.40;99.90;;;;;;5132561;27;20039;-72
2022/01/13 05:27:41;;;;;;;53.72;15.15;;;9.20;99.90;;;;;;5130445;27;20045;-73
2022/01/13 05:30:08;;;;;;;42.42;14.98;;;8.50;99.90;;;;;;5132041;27;20035;-71
2022/01/13 05:32:34;;;;;;;57.10;15.98;;;8.70;99.90;;;;;;5128458;27;20043;-72
2022/01/13 05:35:00;;;;;;;62.50;15.65;;;8.50;99.90;;;;;;5130440;27;20046;-74
2022/01/13 05:37:26;;;;;;;48.53;14.80;;;9.30;99.90;;;;;;5131444;27;20050;-71
2022/01/13 05:39:52;;;;;;;53.45;15.98;;;9.00;99.90;;;;;;5113526;27;20050;-74
2022/01/13 05:42:17;;;;;;;53.17;15.02;;;9.20;99.90;;;;;;5113762;27;20048;-73
2022/01/13 05:44:43;;;;;;;63.80;16.50;;;8.50;99.90;;;;;;5131550;27;20374;-75
2022/01/13 05:47:11;;;;;;;61.97;14.85;;;8.70;99.90;;;;;;5128759;27;20030;-74
2022/01/13 05:49:40;;;;;;;75.47;14.90;;;8.90;99.90;;;;;;5130618;27;20046;-71
2022/01/13 05:52:12;;;;;;;64.38;13.73;;;9.40;99.90;;;;;;5094994;28;20122;-72
2022/01/13 05:54:38;;;;;;;56.78;13.38;;;9.00;99.90;;;;;;5113754;27;20047;-72
2022/01/13 05:57:05;;;;;;;75.75;15.32;;;9.60;99.90;;;;;;5132769;27;20095;-71
2022/01/13 05:59:31;;;;;;;67.10;13.65;;;9.50;99.90;;;;;;5130619;27;20045;-73
2022/01/13 06:01:57;;;;;;;63.25;15.63;;;8.50;99.90;;;;;;5130799;27;20034;-72
2022/01/13 06:04:23;;;;;;;49.20;12.93;;;10.00;99.90;;;;;;5130913;27;20504;-70
2022/01/13 06:06:49;;;;;;;54.08;13.38;;;8.50;99.90;;;;;;5136707;27;20066;-73
2022/01/13 06:09:14;;;;;;;57.67;15.30;;;10.00;99.90;;;;;;5116783;27;20398;-73
2022/01/13 06:11:45;;;;;;;60.67;14.98;;;9.80;99.90;;;;;;5117988;27;20091;-75
2022/01/13 06:14:10;;;;;;;70.28;15.63;;;9.90;99.90;;;;;;5132398;27;20043;-72
2022/01/13 06:16:36;;;;;;;54.33;14.63;;;9.80;99.90;;;;;;5098869;27;20067;-74
2022/01/13 06:19:02;;;;;;;60.88;14.27;;;10.00;99.90;;;;;;5131019;27;20425;-73
2022/01/13 06:21:28;;;;;;;65.47;15.73;;;8.50;99.90;;;;;;5136724;27;20451;-73
2022/01/13 06:23:54;;;;;;;70.55;15.20;;;9.00;99.90;;;;;;5132757;27;20085;-75
2022/01/13 06:26:20;;;;;;;61.70;15.68;;;10.00;99.90;;;;;;5115629;27;20063;-72
2022/01/13 06:28:46;;;;;;;64.18;15.27;;;8.70;99.90;;;;;;5116903;27;20039;-73
2022/01/13 06:31:11;;;;;;;57.83;15.65;;;8.60;99.90;;;;;;5116764;27;20043;-71
2022/01/13 06:33:37;;;;;;;57.00;14.15;;;9.80;99.90;;;;;;5132858;27;20026;-72
2022/01/13 06:36:04;;;;;;;59.35;16.00;;;8.80;99.90;;;;;;5095043;27;20043;-72
2022/01/13 06:38:30;;;;;;;67.53;18.20;;;8.80;99.90;;;;;;5126419;27;20070;-73
2022/01/13 06:40:57;;;;;;;78.82;18.63;;;10.00;99.90;;;;;;5112836;27;20061;-72
2022/01/13 06:43:22;;;;;;;100.93;19.30;;;10.40;99.90;;;;;;5131308;27;20420;-72
2022/01/13 06:45:48;;;;;;;65.50;18.50;;;9.90;99.90;;;;;;5097061;27;20099;-72
2022/01/13 06:48:15;;;;;;;85.38;19.42;;;9.00;99.90;;;;;;5117654;27;20037;-72
2022/01/13 06:50:41;;;;;;;67.05;18.70;;;8.70;99.90;;;;;;5117256;27;20054;-71
2022/01/13 06:53:07;;;;;;;65.03;18.45;;;10.50;99.90;;;;;;5117575;27;20022;-72
2022/01/13 06:55:32;;;;;;;67.70;17.80;;;10.40;99.90;;;;;;5117278;27;20471;-73
2022/01/13 06:57:58;;;;;;;80.20;19.48;;;10.50;99.90;;;;;;5132600;27;20050;-74
2022/01/13 07:00:24;;;;;;;96.53;20.30;;;9.60;99.90;;;;;;5113528;27;20054;-71
2022/01/13 07:02:52;;;;;;;67.30;19.88;;;10.50;99.90;;;;;;5128926;27;20151;-73
2022/01/13 07:05:17;;;;;;;86.25;21.00;;;8.90;99.90;;;;;;5133591;27;20057;-72
2022/01/13 07:07:43;;;;;;;72.38;20.38;;;10.10;99.90;;;;;;5116387;27;20026;-71
2022/01/13 07:10:10;;;;;;;77.65;20.83;;;10.40;99.90;;;;;;5117441;27;20364;-74
2022/01/13 07:12:37;;;;;;;74.47;19.90;;;10.60;99.90;;;;;;5127946;27;20414;-73
2022/01/13 07:15:06;;;;;;;71.97;20.25;;;9.20;99.90;;;;;;5128193;27;20455;-72
2022/01/13 07:17:32;;;;;;;75.68;20.65;;;9.00;99.90;;;;;;5113539;27;21735;-72
2022/01/13 07:19:58;;;;;;;71.90;19.25;;;9.00;99.90;;;;;;5113530;27;20038;-73
2022/01/13 07:22:24;;;;;;;77.45;23.00;;;10.50;99.90;;;;;;5113311;27;20039;-72
2022/01/13 07:24:50;;;;;;;71.28;19.05;;;10.00;99.90;;;;;;5109665;27;20043;-72
2022/01/13 07:27:15;;;;;;;69.75;19.08;;;10.50;99.90;;;;;;5112952;27;20035;-73
2022/01/13 07:29:44;;;;;;;82.20;20.02;;;9.70;99.90;;;;;;5130880;27;20432;-71
2022/01/13 07:32:11;;;;;;;75.43;19.70;;;10.00;99.90;;;;;;5113920;27;20045;-73
2022/01/13 07:34:37;;;;;;;60.50;19.70;;;9.40;99.90;;;;;;5126876;27;20035;-72
2022/01/13 07:37:03;;;;;;;74.18;20.75;;;9.60;99.90;;;;;;5112808;27;20046;-73
2022/01/13 07:39:29;;;;;;;63.03;20.17;;;9.00;99.90;;;;;;5128225;27;20034;-68
2022/01/13 07:41:55;;;;;;;71.22;20.33;;;10.30;99.90;;;;;;5112961;27;20039;-74
2022/01/13 07:44:21;;;;;;;88.20;24.02;;;10.30;99.90;;;;;;5128752;27;20048;-71
2022/01/13 07:46:47;;;;;;;82.50;20.95;;;10.00;99.90;;;;;;5129806;27;20035;-72
2022/01/13 07:49:13;;;;;;;69.50;21.13;;;9.10;99.90;;;;;;5127593;27;20049;-70
2022/01/13 07:51:39;;;;;;;67.95;19.02;;;10.40;99.90;;;;;;5111650;27;20035;-72
2022/01/13 07:54:05;;;;;;;69.10;18.48;;;9.90;99.90;;;;;;5108678;28;20039;-74
2022/01/13 07:56:31;;;;;;;71.00;20.77;;;10.80;99.90;;;;;;5130149;27;20039;-73
2022/01/13 07:58:57;;;;;;;70.57;21.38;;;10.30;99.90;;;;;;5095920;27;20130;-73
2022/01/13 08:01:23;;;;;;;75.40;20.90;;;10.50;99.90;;;;;;5126955;27;20042;-73
2022/01/13 08:03:48;;;;;;;56.53;18.02;;;9.00;99.90;;;;;;5125216;27;20046;-71
2022/01/13 08:06:15;;;;;;;71.25;20.02;;;10.30;99.90;;;;;;5104394;27;20038;-71
2022/01/13 08:08:41;;;;;;;76.78;20.33;;;9.10;99.90;;;;;;5112600;27;20491;-74
2022/01/13 08:11:08;;;;;;;65.18;19.30;;;9.80;99.90;;;;;;5112480;27;20043;-72
2022/01/13 08:13:36;;;;;;;75.95;21.85;;;10.90;99.90;;;;;;5112263;27;20078;-72
2022/01/13 08:16:06;;;;;;;86.32;21.83;;;9.50;99.90;;;;;;5108452;28;20126;-71
2022/01/13 08:21:17;;;;;;;70.32;21.15;;;9.30;99.90;;;;;;5114293;27;20043;-74
2022/01/13 08:23:43;;;;;;;72.90;20.08;;;9.10;99.90;;;;;;5117130;27;20043;-75
2022/01/13 08:26:09;;;;;;;71.18;19.90;;;10.40;99.90;;;;;;5104716;28;20051;-75
2022/01/13 08:28:35;;;;;;;58.33;18.02;;;9.10;99.90;;;;;;5108020;27;20038;-71
2022/01/13 08:31:03;;;;;;;67.32;18.35;;;10.50;99.90;;;;;;5128470;27;20042;-71
2022/01/13 08:33:30;;;;;;;63.80;19.40;;;10.40;99.90;;;;;;5110164;27;20088;-75
2022/01/13 08:35:56;;;;;;;75.75;21.48;;;10.90;99.90;;;;;;5128684;27;20039;-73
2022/01/13 08:38:24;;;;;;;71.38;19.52;;;10.80;99.90;;;;;;5111047;27;20246;-74
2022/01/13 08:40:53;;;;;;;70.65;19.63;;;10.90;99.90;;;;;;5127586;27;20043;-75
2022/01/13 08:43:20;;;;;;;71.78;20.17;;;10.90;99.90;;;;;;5111457;28;20035;-74
2022/01/13 08:45:46;;;;;;;60.25;19.95;;;9.20;99.90;;;;;;5112753;27;20035;-74
2022/01/13 08:48:13;;;;;;;59.05;18.90;;;9.60;99.90;;;;;;5128408;27;20066;-73
2022/01/13 08:50:39;;;;;;;63.00;19.45;;;9.30;99.90;;;;;;5129957;27;20035;-70
2022/01/13 08:53:05;;;;;;;80.35;19.63;;;10.90;99.90;;;;;;5128603;27;20507;-70
2022/01/13 08:55:31;;;;;;;69.72;21.50;;;9.80;99.90;;;;;;5129322;27;20035;-72
2022/01/13 08:57:57;;;;;;;67.80;19.42;;;10.20;99.90;;;;;;5127813;27;20050;-70
2022/01/13 09:00:23;;;;;;;59.90;19.25;;;10.60;99.90;;;;;;5108468;28;20563;-72
2022/01/13 09:02:49;;;;;;;66.68;19.08;;;10.70;99.90;;;;;;5127006;28;20435;-73
2022/01/13 09:05:17;;;;;;;64.57;20.88;;;9.50;99.90;;;;;;5111947;28;20043;-73
2022/01/13 09:07:43;;;;;;;66.43;20.90;;;9.30;99.90;;;;;;5110058;28;20038;-73
2022/01/13 09:10:11;;;;;;;61.00;19.88;;;9.10;99.90;;;;;;5104185;28;20035;-71
2022/01/13 09:12:37;;;;;;;65.25;18.60;;;9.00;99.90;;;;;;5103825;28;20047;-72
2022/01/13 09:15:15;;;;;;;59.20;20.00;;;9.80;99.90;;;;;;5121353;28;20472;-72
2022/01/13 09:17:43;;;;;;;64.80;19.92;;;9.50;99.90;;;;;;5091843;28;20043;-72
2022/01/13 09:20:12;;;;;;;53.92;19.33;;;10.70;99.90;;;;;;5121801;28;20035;-70
2022/01/13 09:22:39;;;;;;;61.38;18.30;;;9.80;99.90;;;;;;5121762;28;20046;-71
2022/01/13 09:25:07;;;;;;;58.65;19.85;;;9.10;99.90;;;;;;5103605;28;20043;-71
2022/01/13 09:27:33;;;;;;;62.97;20.02;;;9.90;99.90;;;;;;5121709;28;20051;-71
2022/01/13 09:30:00;;;;;;;56.47;19.85;;;10.90;99.90;;;;;;5084353;28;20089;-70
2022/01/13 09:32:26;;;;;;;53.30;18.45;;;9.10;99.90;;;;;;5120239;28;20043;-72
2022/01/13 09:34:52;;;;;;;62.10;19.23;;;10.50;99.90;;;;;;5103388;28;20605;-71
2022/01/13 09:37:17;;;;;;;61.95;18.42;;;9.40;99.90;;;;;;5087393;27;20043;-69
2022/01/13 09:39:43;;;;;;;56.88;19.75;;;9.60;99.90;;;;;;5124008;27;20038;-71
2022/01/13 09:42:10;;;;;;;55.05;20.33;;;10.70;99.90;;;;;;5109344;27;20439;-69
2022/01/13 09:44:37;;;;;;;59.40;20.20;;;10.40;99.90;;;;;;5124631;27;20043;-69
2022/01/13 09:47:04;;;;;;;60.72;19.92;;;10.10;99.90;;;;;;5109490;27;20081;-71
2022/01/13 09:49:31;;;;;;;51.38;18.80;;;9.30;99.90;;;;;;5125292;27;20046;-71
2022/01/13 09:51:56;;;;;;;51.95;19.70;;;9.90;99.90;;;;;;5104939;28;20045;-71
2022/01/13 09:54:22;;;;;;;43.30;17.90;;;9.70;99.90;;;;;;5105078;28;20508;-70
2022/01/13 09:56:48;;;;;;;54.00;19.52;;;9.60;99.90;;;;;;5121364;27;20562;-72
2022/01/13 09:59:14;;;;;;;61.35;19.20;;;10.10;99.90;;;;;;5108326;27;20116;-71
2022/01/13 10:01:40;;;;;;;46.90;18.67;;;10.80;99.90;;;;;;5124513;27;20039;-71
2022/01/13 10:04:06;;;;;;;50.80;19.45;;;10.20;99.90;;;;;;5125675;27;20054;-71
2022/01/13 10:06:41;;;;;;;44.67;17.45;;;9.40;99.90;;;;;;5123843;27;20645;-72
2022/01/13 10:09:07;;;;;;;48.40;18.08;;;10.70;99.90;;;;;;5125606;27;20549;-72
2022/01/13 10:11:56;;;;;;;59.10;19.50;;;10.50;99.90;;;;;;5123725;27;20039;-72
2022/01/13 10:17:09;;;;;;;43.20;18.33;;;9.40;99.90;;;;;;5124594;27;20095;-70
2022/01/13 10:19:42;;;;;;;46.22;17.23;;;10.00;99.90;;;;;;5124356;27;20093;-69
2022/01/13 10:22:16;;;;;;;44.90;18.40;;;10.20;99.90;;;;;;5124459;27;20035;-71
2022/01/13 10:24:44;;;;;;;48.53;19.27;;;10.50;99.90;;;;;;5108070;27;20084;-69
2022/01/13 10:27:14;;;;;;;56.05;20.90;;;9.80;99.90;;;;;;5123064;27;20039;-70
2022/01/13 10:29:50;;;;;;;52.15;19.67;;;10.90;99.90;;;;;;5104211;28;20051;-70
2022/01/13 10:32:21;;;;;;;50.90;20.38;;;9.50;99.90;;;;;;5122135;27;20456;-72
2022/01/13 10:34:49;;;;;;;47.47;19.27;;;10.90;99.90;;;;;;5124346;27;20096;-70
2022/01/13 10:37:20;;;;;;;54.28;21.10;;;11.20;99.90;;;;;;5108214;27;20561;-70
2022/01/13 10:39:57;;;;;;;50.88;19.67;;;10.20;99.90;;;;;;5124407;27;20091;-71
2022/01/13 10:45:06;;;;;;;43.75;19.15;;;11.20;99.90;;;;;;5104665;28;20049;-71
2022/01/13 10:47:31;;;;;;;47.55;18.73;;;10.10;99.90;;;;;;5105230;27;20047;-70
2022/01/13 10:50:07;;;;;;;47.47;18.92;;;11.10;99.90;;;;;;5122659;27;20045;-70
2022/01/13 10:52:33;;;;;;;48.03;18.90;;;10.10;99.90;;;;;;5106889;27;20050;-70
2022/01/13 10:55:08;;;;;;;43.13;20.05;;;11.00;99.90;;;;;;5103167;28;20055;-71
2022/01/13 10:57:35;;;;;;;46.85;17.17;;;9.80;99.90;;;;;;5103580;28;20044;-69
2022/01/13 11:00:03;;;;;;;42.88;18.58;;;10.50;99.90;;;;;;5119450;27;20043;-71
2022/01/13 11:02:28;;;;;;;43.90;18.45;;;10.70;99.90;;;;;;5106549;27;20414;-70
2022/01/13 11:04:54;;;;;;;45.13;20.08;;;11.00;99.90;;;;;;5105586;27;20043;-73
2022/01/13 11:07:25;;;;;;;37.03;17.67;;;9.60;99.90;;;;;;5124827;27;20043;-71
2022/01/13 11:09:56;;;;;;;43.20;18.60;;;10.20;99.90;;;;;;5123110;27;20049;-69
2022/01/13 11:12:35;;;;;;;40.65;18.90;;;10.50;99.90;;;;;;5123934;27;20047;-72
2022/01/13 11:15:08;;;;;;;39.25;17.98;;;9.80;99.90;;;;;;5106179;27;20563;-72
2022/01/13 11:17:38;;;;;;;47.20;20.10;;;11.10;99.90;;;;;;5122401;27;20039;-72
2022/01/13 11:20:09;;;;;;;42.72;19.10;;;11.10;99.90;;;;;;5103937;27;20059;-70
2022/01/13 11:22:39;;;;;;;49.33;22.02;;;10.50;99.90;;;;;;5122424;27;20039;-70
2022/01/13 11:25:10;;;;;;;44.97;19.55;;;11.00;99.90;;;;;;5122674;27;20043;-72
2022/01/13 11:27:37;;;;;;;44.42;20.02;;;10.60;99.90;;;;;;5111661;27;20143;-71
2022/01/13 11:30:09;;;;;;;45.80;20.33;;;10.80;99.90;;;;;;5123894;27;20046;-73
2022/01/13 11:32:35;;;;;;;43.03;19.65;;;9.80;99.90;;;;;;5105179;27;20055;-71
2022/01/13 11:35:02;;;;;;;49.17;21.63;;;10.20;99.90;;;;;;5123716;27;20435;-71
2022/01/13 11:37:29;;;;;;;48.75;20.38;;;10.80;99.90;;;;;;5118950;27;20121;-70
2022/01/13 11:39:56;;;;;;;44.13;19.88;;;9.80;99.90;;;;;;5086557;27;20062;-71
2022/01/13 11:42:23;;;;;;;48.55;20.52;;;10.30;99.90;;;;;;5104707;27;20092;-71
2022/01/13 11:45:15;;;;;;;42.42;18.52;;;10.00;99.90;;;;;;5100895;27;20088;-71
2022/01/13 11:47:41;;;;;;;44.90;19.27;;;10.60;99.90;;;;;;5093852;28;20052;-70
2022/01/13 11:50:22;;;;;;;42.83;20.00;;;10.90;99.90;;;;;;5095852;27;20045;-71
2022/01/13 11:52:53;;;;;;;42.70;18.88;;;10.50;99.90;;;;;;5120223;27;20039;-70
2022/01/13 11:55:25;;;;;;;44.47;19.45;;;11.10;99.90;;;;;;5119666;27;20038;-71
2022/01/13 11:57:52;;;;;;;41.80;18.88;;;10.20;99.90;;;;;;5114180;27;20036;-72
2022/01/13 12:00:25;;;;;;;40.67;20.30;;;10.90;99.90;;;;;;5119126;27;20118;-71
2022/01/13 12:02:51;;;;;;;41.90;19.48;;;9.80;99.90;;;;;;5120822;27;20083;-71
2022/01/13 12:05:19;;;;;;;42.03;18.33;;;9.90;99.90;;;;;;5120215;27;20039;-71
2022/01/13 12:07:49;;;;;;;42.80;19.05;;;10.10;99.90;;;;;;5100500;27;20441;-71
2022/01/13 12:10:37;;;;;;;46.42;20.50;;;10.10;99.90;;;;;;5118440;27;20038;-71
2022/01/13 12:13:28;;;;;;;37.65;18.58;;;10.10;99.90;;;;;;5118647;27;20475;-72
2022/01/13 12:15:55;;;;;;;46.35;18.60;;;10.10;99.90;;;;;;5098952;27;20043;-73
2022/01/13 12:18:43;;;;;;;38.90;18.92;;;9.90;99.90;;;;;;5103491;27;20040;-72
2022/01/13 12:21:31;;;;;;;41.85;19.08;;;10.90;99.90;;;;;;5118036;27;20047;-72
2022/01/13 12:23:59;;;;;;;42.05;17.70;;;10.40;99.90;;;;;;5104277;27;20039;-71
2022/01/13 12:26:34;;;;;;;39.47;18.25;;;11.00;99.90;;;;;;5121156;27;20043;-71
2022/01/13 12:29:13;;;;;;;40.70;18.92;;;9.90;99.90;;;;;;5097149;27;20327;-71
2022/01/13 12:31:51;;;;;;;37.75;18.13;;;9.90;99.90;;;;;;5108724;27;20035;-73
2022/01/13 12:34:32;;;;;;;44.10;19.67;;;10.20;99.90;;;;;;5100915;27;20039;-72
2022/01/13 12:36:59;;;;;;;41.38;20.05;;;11.20;99.90;;;;;;5117989;27;20111;-74
2022/01/13 12:39:27;;;;;;;47.60;21.13;;;10.30;99.90;;;;;;5120693;27;20054;-71
2022/01/13 12:42:02;;;;;;;42.78;19.38;;;9.90;99.90;;;;;;5101955;27;20031;-72
2022/01/13 12:47:22;;;;;;;41.08;17.90;;;9.90;99.90;;;;;;5097455;27;20046;-73
2022/01/13 12:49:48;;;;;;;45.63;19.77;;;10.70;99.90;;;;;;5117022;27;20786;-71
2022/01/13 12:52:19;;;;;;;41.75;19.75;;;10.90;99.90;;;;;;5096653;27;20044;-73
2022/01/13 12:54:47;;;;;;;37.00;19.23;;;10.30;99.90;;;;;;5092670;28;20043;-72
2022/01/13 12:57:14;;;;;;;35.20;19.02;;;10.20;99.90;;;;;;5117977;27;20042;-73
2022/01/13 12:59:40;;;;;;;34.42;17.83;;;11.10;99.90;;;;;;5099055;28;20061;-72
2022/01/13 13:02:08;;;;;;;34.08;18.25;;;10.80;99.90;;;;;;5117757;28;20035;-71
2022/01/13 13:04:35;;;;;;;38.25;18.92;;;10.50;99.90;;;;;;5103730;28;20035;-72
2022/01/13 13:07:02;;;;;;;35.20;18.67;;;11.00;99.90;;;;;;5079531;28;20039;-73
2022/01/13 13:09:30;;;;;;;37.22;18.50;;;10.80;99.90;;;;;;5117570;28;20879;-72